sensor_id;sensor_type;location;lat;lon;timestamp;P1;durP1;ratioP1;P2;durP2;ratioP2
13048;SDS011;6591;51.446;5.404;2023-04-03T00:01:53;7.83;;;4.87;;
13048;SDS011;6591;51.446;5.404;2023-04-03T00:04:20;6.00;;;5.13;;
13048;SDS011;6591;51.446;5.404;2023-04-03T00:06:48;9.20;;;5.27;;
13048;SDS011;6591;51.446;5.404;2023-04-03T00:09:15;6.37;;;5.67;;
13048;SDS011;6591;51.446;5.404;2023-04-03T00:11:42;5.57;;;4.97;;
13048;SDS011;6591;51.446;5.404;2023-04-03T00:14:09;5.23;;;4.73;;
13048;SDS011;6591;51.446;5.404;2023-04-03T00:16:36;6.23;;;5.30;;
13048;SDS011;6591;51.446;5.404;2023-04-03T00:19:03;6.23;;;4.63;;
13048;SDS011;6591;51.446;5.404;2023-04-03T00:21:31;6.17;;;4.57;;
13048;SDS011;6591;51.446;5.404;2023-04-03T00:23:58;5.57;;;4.83;;
13048;SDS011;6591;51.446;5.404;2023-04-03T00:26:26;5.27;;;4.63;;
13048;SDS011;6591;51.446;5.404;2023-04-03T00:28:53;7.73;;;5.20;;
13048;SDS011;6591;51.446;5.404;2023-04-03T00:31:20;7.73;;;5.47;;
13048;SDS011;6591;51.446;5.404;2023-04-03T00:33:47;6.13;;;4.67;;
13048;SDS011;6591;51.446;5.404;2023-04-03T00:36:14;5.60;;;4.97;;
13048;SDS011;6591;51.446;5.404;2023-04-03T00:38:42;6.60;;;5.90;;
13048;SDS011;6591;51.446;5.404;2023-04-03T00:41:10;6.67;;;5.80;;
13048;SDS011;6591;51.446;5.404;2023-04-03T00:43:37;7.90;;;5.80;;
13048;SDS011;6591;51.446;5.404;2023-04-03T00:46:04;7.33;;;5.40;;
13048;SDS011;6591;51.446;5.404;2023-04-03T00:48:37;6.70;;;5.80;;
13048;SDS011;6591;51.446;5.404;2023-04-03T00:51:11;8.17;;;5.33;;
13048;SDS011;6591;51.446;5.404;2023-04-03T00:53:49;7.77;;;5.70;;
13048;SDS011;6591;51.446;5.404;2023-04-03T00:56:23;7.20;;;5.67;;
13048;SDS011;6591;51.446;5.404;2023-04-03T00:58:55;6.27;;;5.63;;
13048;SDS011;6591;51.446;5.404;2023-04-03T01:01:35;7.47;;;6.30;;
13048;SDS011;6591;51.446;5.404;2023-04-03T01:04:04;6.80;;;5.93;;
13048;SDS011;6591;51.446;5.404;2023-04-03T01:06:34;7.20;;;5.53;;
13048;SDS011;6591;51.446;5.404;2023-04-03T01:09:06;6.60;;;5.90;;
13048;SDS011;6591;51.446;5.404;2023-04-03T01:11:33;6.67;;;5.80;;
13048;SDS011;6591;51.446;5.404;2023-04-03T01:14:01;7.80;;;6.27;;
13048;SDS011;6591;51.446;5.404;2023-04-03T01:16:29;7.20;;;6.27;;
13048;SDS011;6591;51.446;5.404;2023-04-03T01:18:58;8.30;;;6.73;;
13048;SDS011;6591;51.446;5.404;2023-04-03T01:24:31;8.27;;;6.37;;
13048;SDS011;6591;51.446;5.404;2023-04-03T01:27:06;7.03;;;6.00;;
13048;SDS011;6591;51.446;5.404;2023-04-03T01:29:36;8.40;;;6.03;;
13048;SDS011;6591;51.446;5.404;2023-04-03T01:32:04;8.00;;;6.93;;
13048;SDS011;6591;51.446;5.404;2023-04-03T01:34:32;9.63;;;7.60;;
13048;SDS011;6591;51.446;5.404;2023-04-03T01:36:59;7.90;;;7.10;;
13048;SDS011;6591;51.446;5.404;2023-04-03T01:39:26;8.87;;;7.43;;
13048;SDS011;6591;51.446;5.404;2023-04-03T01:41:53;9.53;;;8.33;;
13048;SDS011;6591;51.446;5.404;2023-04-03T01:44:29;9.23;;;8.10;;
13048;SDS011;6591;51.446;5.404;2023-04-03T01:46:56;8.73;;;7.60;;
13048;SDS011;6591;51.446;5.404;2023-04-03T01:49:25;9.77;;;7.30;;
13048;SDS011;6591;51.446;5.404;2023-04-03T01:51:53;8.80;;;7.37;;
13048;SDS011;6591;51.446;5.404;2023-04-03T01:54:20;9.13;;;7.00;;
13048;SDS011;6591;51.446;5.404;2023-04-03T01:56:47;7.90;;;6.93;;
13048;SDS011;6591;51.446;5.404;2023-04-03T01:59:14;7.37;;;6.67;;
13048;SDS011;6591;51.446;5.404;2023-04-03T02:01:44;8.60;;;6.90;;
13048;SDS011;6591;51.446;5.404;2023-04-03T02:04:12;8.37;;;7.37;;
13048;SDS011;6591;51.446;5.404;2023-04-03T02:06:39;7.40;;;6.70;;
13048;SDS011;6591;51.446;5.404;2023-04-03T02:09:07;9.77;;;6.40;;
13048;SDS011;6591;51.446;5.404;2023-04-03T02:11:34;8.97;;;6.63;;
13048;SDS011;6591;51.446;5.404;2023-04-03T02:14:01;7.17;;;5.67;;
13048;SDS011;6591;51.446;5.404;2023-04-03T02:16:28;8.47;;;6.53;;
13048;SDS011;6591;51.446;5.404;2023-04-03T02:18:57;8.17;;;6.70;;
13048;SDS011;6591;51.446;5.404;2023-04-03T02:21:24;8.33;;;6.10;;
13048;SDS011;6591;51.446;5.404;2023-04-03T02:23:52;7.57;;;5.87;;
13048;SDS011;6591;51.446;5.404;2023-04-03T02:26:19;7.83;;;6.30;;
13048;SDS011;6591;51.446;5.404;2023-04-03T02:28:47;7.70;;;5.70;;
13048;SDS011;6591;51.446;5.404;2023-04-03T02:31:14;7.10;;;6.23;;
13048;SDS011;6591;51.446;5.404;2023-04-03T02:33:43;7.87;;;6.07;;
13048;SDS011;6591;51.446;5.404;2023-04-03T02:36:13;6.33;;;5.30;;
13048;SDS011;6591;51.446;5.404;2023-04-03T02:38:43;7.07;;;5.73;;
13048;SDS011;6591;51.446;5.404;2023-04-03T02:41:11;6.97;;;5.90;;
13048;SDS011;6591;51.446;5.404;2023-04-03T02:43:39;9.03;;;5.93;;
13048;SDS011;6591;51.446;5.404;2023-04-03T02:46:06;7.33;;;6.03;;
13048;SDS011;6591;51.446;5.404;2023-04-03T02:48:34;6.00;;;5.40;;
13048;SDS011;6591;51.446;5.404;2023-04-03T02:51:02;7.40;;;5.63;;
13048;SDS011;6591;51.446;5.404;2023-04-03T02:53:29;9.50;;;5.87;;
13048;SDS011;6591;51.446;5.404;2023-04-03T02:56:00;6.50;;;5.50;;
13048;SDS011;6591;51.446;5.404;2023-04-03T02:58:27;7.37;;;5.57;;
13048;SDS011;6591;51.446;5.404;2023-04-03T03:00:56;7.70;;;5.53;;
13048;SDS011;6591;51.446;5.404;2023-04-03T03:03:23;7.80;;;5.10;;
13048;SDS011;6591;51.446;5.404;2023-04-03T03:06:00;9.03;;;5.67;;
13048;SDS011;6591;51.446;5.404;2023-04-03T03:08:33;6.93;;;5.03;;
13048;SDS011;6591;51.446;5.404;2023-04-03T03:11:01;7.30;;;5.00;;
13048;SDS011;6591;51.446;5.404;2023-04-03T03:13:29;7.77;;;4.87;;
13048;SDS011;6591;51.446;5.404;2023-04-03T03:15:57;6.20;;;4.90;;
13048;SDS011;6591;51.446;5.404;2023-04-03T03:18:25;5.63;;;4.80;;
13048;SDS011;6591;51.446;5.404;2023-04-03T03:20:53;8.23;;;5.20;;
13048;SDS011;6591;51.446;5.404;2023-04-03T03:23:26;5.90;;;4.73;;
13048;SDS011;6591;51.446;5.404;2023-04-03T03:25:58;5.60;;;5.00;;
13048;SDS011;6591;51.446;5.404;2023-04-03T03:28:33;6.10;;;5.07;;
13048;SDS011;6591;51.446;5.404;2023-04-03T03:31:02;4.87;;;4.37;;
13048;SDS011;6591;51.446;5.404;2023-04-03T03:33:31;5.83;;;4.40;;
13048;SDS011;6591;51.446;5.404;2023-04-03T03:35:59;5.60;;;4.53;;
13048;SDS011;6591;51.446;5.404;2023-04-03T03:38:28;4.73;;;4.13;;
13048;SDS011;6591;51.446;5.404;2023-04-03T03:40:55;5.23;;;4.30;;
13048;SDS011;6591;51.446;5.404;2023-04-03T03:43:23;7.30;;;4.53;;
13048;SDS011;6591;51.446;5.404;2023-04-03T03:45:52;6.37;;;4.97;;
13048;SDS011;6591;51.446;5.404;2023-04-03T03:48:21;5.07;;;4.50;;
13048;SDS011;6591;51.446;5.404;2023-04-03T03:50:49;5.40;;;4.13;;
13048;SDS011;6591;51.446;5.404;2023-04-03T03:53:19;7.60;;;5.23;;
13048;SDS011;6591;51.446;5.404;2023-04-03T03:55:48;5.10;;;4.20;;
13048;SDS011;6591;51.446;5.404;2023-04-03T03:58:18;4.30;;;3.90;;
13048;SDS011;6591;51.446;5.404;2023-04-03T04:00:45;5.03;;;4.07;;
13048;SDS011;6591;51.446;5.404;2023-04-03T04:03:13;6.50;;;4.50;;
13048;SDS011;6591;51.446;5.404;2023-04-03T04:05:42;6.30;;;4.43;;
13048;SDS011;6591;51.446;5.404;2023-04-03T04:08:10;5.33;;;4.10;;
13048;SDS011;6591;51.446;5.404;2023-04-03T04:10:38;4.53;;;3.67;;
13048;SDS011;6591;51.446;5.404;2023-04-03T04:13:06;5.00;;;4.20;;
13048;SDS011;6591;51.446;5.404;2023-04-03T04:15:34;5.03;;;4.20;;
13048;SDS011;6591;51.446;5.404;2023-04-03T04:18:02;6.73;;;4.37;;
13048;SDS011;6591;51.446;5.404;2023-04-03T04:20:30;7.20;;;4.07;;
13048;SDS011;6591;51.446;5.404;2023-04-03T04:22:57;4.27;;;3.80;;
13048;SDS011;6591;51.446;5.404;2023-04-03T04:25:25;7.87;;;4.27;;
13048;SDS011;6591;51.446;5.404;2023-04-03T04:27:52;4.70;;;4.00;;
13048;SDS011;6591;51.446;5.404;2023-04-03T04:30:19;6.50;;;4.27;;
13048;SDS011;6591;51.446;5.404;2023-04-03T04:32:48;4.17;;;3.47;;
13048;SDS011;6591;51.446;5.404;2023-04-03T04:35:16;5.30;;;3.80;;
13048;SDS011;6591;51.446;5.404;2023-04-03T04:37:46;4.53;;;3.77;;
13048;SDS011;6591;51.446;5.404;2023-04-03T04:40:14;5.17;;;3.50;;
13048;SDS011;6591;51.446;5.404;2023-04-03T04:42:42;6.13;;;4.00;;
13048;SDS011;6591;51.446;5.404;2023-04-03T04:45:09;4.77;;;3.67;;
13048;SDS011;6591;51.446;5.404;2023-04-03T04:47:38;5.10;;;3.67;;
13048;SDS011;6591;51.446;5.404;2023-04-03T04:50:06;5.43;;;3.33;;
13048;SDS011;6591;51.446;5.404;2023-04-03T04:52:33;5.27;;;3.40;;
13048;SDS011;6591;51.446;5.404;2023-04-03T04:55:01;6.87;;;3.43;;
13048;SDS011;6591;51.446;5.404;2023-04-03T04:57:28;5.60;;;3.70;;
13048;SDS011;6591;51.446;5.404;2023-04-03T04:59:57;4.93;;;3.40;;
13048;SDS011;6591;51.446;5.404;2023-04-03T05:02:24;6.00;;;3.30;;
13048;SDS011;6591;51.446;5.404;2023-04-03T05:04:52;5.20;;;3.40;;
13048;SDS011;6591;51.446;5.404;2023-04-03T05:07:24;5.83;;;3.17;;
13048;SDS011;6591;51.446;5.404;2023-04-03T05:09:52;7.23;;;4.50;;
13048;SDS011;6591;51.446;5.404;2023-04-03T05:12:19;7.67;;;3.57;;
13048;SDS011;6591;51.446;5.404;2023-04-03T05:14:52;5.43;;;3.23;;
13048;SDS011;6591;51.446;5.404;2023-04-03T05:17:19;4.40;;;3.17;;
13048;SDS011;6591;51.446;5.404;2023-04-03T05:19:51;4.50;;;3.37;;
13048;SDS011;6591;51.446;5.404;2023-04-03T05:22:20;5.30;;;3.10;;
13048;SDS011;6591;51.446;5.404;2023-04-03T05:24:50;3.80;;;2.90;;
13048;SDS011;6591;51.446;5.404;2023-04-03T05:27:18;3.70;;;3.30;;
13048;SDS011;6591;51.446;5.404;2023-04-03T05:29:50;4.00;;;3.40;;
13048;SDS011;6591;51.446;5.404;2023-04-03T05:32:21;4.53;;;3.20;;
13048;SDS011;6591;51.446;5.404;2023-04-03T05:34:57;3.90;;;2.97;;
13048;SDS011;6591;51.446;5.404;2023-04-03T05:37:26;6.17;;;3.50;;
13048;SDS011;6591;51.446;5.404;2023-04-03T05:39:55;3.20;;;2.73;;
13048;SDS011;6591;51.446;5.404;2023-04-03T05:42:22;5.63;;;3.10;;
13048;SDS011;6591;51.446;5.404;2023-04-03T05:44:49;4.43;;;3.00;;
13048;SDS011;6591;51.446;5.404;2023-04-03T05:47:17;5.70;;;2.97;;
13048;SDS011;6591;51.446;5.404;2023-04-03T05:49:45;6.50;;;2.90;;
13048;SDS011;6591;51.446;5.404;2023-04-03T05:54:56;5.20;;;3.43;;
13048;SDS011;6591;51.446;5.404;2023-04-03T05:57:26;4.83;;;2.93;;
13048;SDS011;6591;51.446;5.404;2023-04-03T05:59:54;5.37;;;3.10;;
13048;SDS011;6591;51.446;5.404;2023-04-03T06:02:22;3.83;;;3.07;;
13048;SDS011;6591;51.446;5.404;2023-04-03T06:04:52;5.47;;;3.10;;
13048;SDS011;6591;51.446;5.404;2023-04-03T06:07:20;4.33;;;3.10;;
13048;SDS011;6591;51.446;5.404;2023-04-03T06:09:50;4.47;;;2.93;;
13048;SDS011;6591;51.446;5.404;2023-04-03T06:12:17;6.13;;;3.00;;
13048;SDS011;6591;51.446;5.404;2023-04-03T06:14:45;5.33;;;2.97;;
13048;SDS011;6591;51.446;5.404;2023-04-03T06:17:14;4.63;;;3.10;;
13048;SDS011;6591;51.446;5.404;2023-04-03T06:19:42;5.97;;;2.90;;
13048;SDS011;6591;51.446;5.404;2023-04-03T06:22:09;5.07;;;3.10;;
13048;SDS011;6591;51.446;5.404;2023-04-03T06:24:38;4.97;;;3.10;;
13048;SDS011;6591;51.446;5.404;2023-04-03T06:27:05;4.80;;;2.70;;
13048;SDS011;6591;51.446;5.404;2023-04-03T06:29:32;3.77;;;2.70;;
13048;SDS011;6591;51.446;5.404;2023-04-03T06:31:59;4.13;;;3.00;;
13048;SDS011;6591;51.446;5.404;2023-04-03T06:34:26;3.80;;;2.67;;
13048;SDS011;6591;51.446;5.404;2023-04-03T06:36:54;4.57;;;3.00;;
13048;SDS011;6591;51.446;5.404;2023-04-03T06:39:21;5.93;;;2.87;;
13048;SDS011;6591;51.446;5.404;2023-04-03T06:41:49;5.00;;;2.70;;
13048;SDS011;6591;51.446;5.404;2023-04-03T06:44:25;5.23;;;2.80;;
13048;SDS011;6591;51.446;5.404;2023-04-03T06:46:52;4.63;;;2.90;;
13048;SDS011;6591;51.446;5.404;2023-04-03T06:49:20;5.33;;;2.57;;
13048;SDS011;6591;51.446;5.404;2023-04-03T06:51:48;7.03;;;2.83;;
13048;SDS011;6591;51.446;5.404;2023-04-03T06:54:15;4.47;;;3.00;;
13048;SDS011;6591;51.446;5.404;2023-04-03T06:56:42;6.03;;;2.77;;
13048;SDS011;6591;51.446;5.404;2023-04-03T06:59:10;4.60;;;2.80;;
13048;SDS011;6591;51.446;5.404;2023-04-03T07:01:40;6.33;;;2.77;;
13048;SDS011;6591;51.446;5.404;2023-04-03T07:04:08;3.83;;;2.60;;
13048;SDS011;6591;51.446;5.404;2023-04-03T07:06:35;4.83;;;2.50;;
13048;SDS011;6591;51.446;5.404;2023-04-03T07:09:02;4.80;;;2.73;;
13048;SDS011;6591;51.446;5.404;2023-04-03T07:11:29;6.10;;;2.40;;
13048;SDS011;6591;51.446;5.404;2023-04-03T07:13:56;5.33;;;2.77;;
13048;SDS011;6591;51.446;5.404;2023-04-03T07:16:23;6.37;;;2.67;;
13048;SDS011;6591;51.446;5.404;2023-04-03T07:18:51;4.13;;;2.53;;
13048;SDS011;6591;51.446;5.404;2023-04-03T07:21:18;3.93;;;2.50;;
13048;SDS011;6591;51.446;5.404;2023-04-03T07:23:45;4.37;;;2.70;;
13048;SDS011;6591;51.446;5.404;2023-04-03T07:26:12;4.23;;;2.63;;
13048;SDS011;6591;51.446;5.404;2023-04-03T07:28:40;3.87;;;2.30;;
13048;SDS011;6591;51.446;5.404;2023-04-03T07:31:09;4.93;;;3.10;;
13048;SDS011;6591;51.446;5.404;2023-04-03T07:33:40;5.50;;;2.70;;
13048;SDS011;6591;51.446;5.404;2023-04-03T07:36:09;4.00;;;2.57;;
13048;SDS011;6591;51.446;5.404;2023-04-03T07:38:41;5.27;;;2.40;;
13048;SDS011;6591;51.446;5.404;2023-04-03T07:41:11;5.03;;;2.73;;
13048;SDS011;6591;51.446;5.404;2023-04-03T07:43:41;3.70;;;2.20;;
13048;SDS011;6591;51.446;5.404;2023-04-03T07:46:08;4.10;;;2.20;;
13048;SDS011;6591;51.446;5.404;2023-04-03T07:48:36;3.93;;;2.57;;
13048;SDS011;6591;51.446;5.404;2023-04-03T07:51:03;4.33;;;2.53;;
13048;SDS011;6591;51.446;5.404;2023-04-03T07:53:32;5.77;;;2.50;;
13048;SDS011;6591;51.446;5.404;2023-04-03T07:55:59;7.67;;;2.40;;
13048;SDS011;6591;51.446;5.404;2023-04-03T07:58:29;3.53;;;2.00;;
13048;SDS011;6591;51.446;5.404;2023-04-03T08:00:56;5.63;;;2.53;;
13048;SDS011;6591;51.446;5.404;2023-04-03T08:03:23;3.20;;;2.30;;
13048;SDS011;6591;51.446;5.404;2023-04-03T08:05:51;4.60;;;2.30;;
13048;SDS011;6591;51.446;5.404;2023-04-03T08:08:22;5.13;;;2.20;;
13048;SDS011;6591;51.446;5.404;2023-04-03T08:10:53;7.30;;;2.50;;
13048;SDS011;6591;51.446;5.404;2023-04-03T08:13:21;5.27;;;2.30;;
13048;SDS011;6591;51.446;5.404;2023-04-03T08:15:48;3.33;;;2.00;;
13048;SDS011;6591;51.446;5.404;2023-04-03T08:18:16;3.80;;;2.20;;
13048;SDS011;6591;51.446;5.404;2023-04-03T08:20:44;3.40;;;2.07;;
13048;SDS011;6591;51.446;5.404;2023-04-03T08:23:11;3.67;;;2.07;;
13048;SDS011;6591;51.446;5.404;2023-04-03T08:25:40;4.47;;;1.80;;
13048;SDS011;6591;51.446;5.404;2023-04-03T08:28:08;3.40;;;1.90;;
13048;SDS011;6591;51.446;5.404;2023-04-03T08:30:40;2.93;;;1.97;;
13048;SDS011;6591;51.446;5.404;2023-04-03T08:33:09;3.10;;;1.90;;
13048;SDS011;6591;51.446;5.404;2023-04-03T08:35:40;3.63;;;1.87;;
13048;SDS011;6591;51.446;5.404;2023-04-03T08:38:09;3.63;;;1.70;;
13048;SDS011;6591;51.446;5.404;2023-04-03T08:40:37;5.43;;;2.00;;
13048;SDS011;6591;51.446;5.404;2023-04-03T08:43:27;2.90;;;1.80;;
13048;SDS011;6591;51.446;5.404;2023-04-03T08:46:27;2.60;;;1.80;;
13048;SDS011;6591;51.446;5.404;2023-04-03T08:49:24;3.00;;;1.60;;
13048;SDS011;6591;51.446;5.404;2023-04-03T08:51:59;3.57;;;1.83;;
13048;SDS011;6591;51.446;5.404;2023-04-03T08:54:57;2.97;;;1.80;;
13048;SDS011;6591;51.446;5.404;2023-04-03T08:57:30;2.67;;;1.43;;
13048;SDS011;6591;51.446;5.404;2023-04-03T09:00:23;3.47;;;1.60;;
13048;SDS011;6591;51.446;5.404;2023-04-03T09:02:55;1.83;;;1.57;;
13048;SDS011;6591;51.446;5.404;2023-04-03T09:05:38;4.90;;;1.77;;
13048;SDS011;6591;51.446;5.404;2023-04-03T09:08:29;3.40;;;1.70;;
13048;SDS011;6591;51.446;5.404;2023-04-03T09:11:06;4.40;;;1.77;;
13048;SDS011;6591;51.446;5.404;2023-04-03T09:13:47;3.27;;;1.40;;
13048;SDS011;6591;51.446;5.404;2023-04-03T09:16:52;3.70;;;1.73;;
13048;SDS011;6591;51.446;5.404;2023-04-03T09:19:38;4.20;;;1.43;;
13048;SDS011;6591;51.446;5.404;2023-04-03T09:22:38;2.50;;;1.43;;
13048;SDS011;6591;51.446;5.404;2023-04-03T09:25:18;2.93;;;1.40;;
13048;SDS011;6591;51.446;5.404;2023-04-03T09:27:59;2.70;;;1.50;;
13048;SDS011;6591;51.446;5.404;2023-04-03T09:30:35;2.53;;;1.30;;
13048;SDS011;6591;51.446;5.404;2023-04-03T09:33:04;1.60;;;1.20;;
13048;SDS011;6591;51.446;5.404;2023-04-03T09:35:35;2.50;;;1.20;;
13048;SDS011;6591;51.446;5.404;2023-04-03T09:40:47;1.40;;;1.00;;
13048;SDS011;6591;51.446;5.404;2023-04-03T09:43:30;2.27;;;1.20;;
13048;SDS011;6591;51.446;5.404;2023-04-03T09:46:15;1.63;;;1.13;;
13048;SDS011;6591;51.446;5.404;2023-04-03T09:48:57;1.77;;;1.13;;
13048;SDS011;6591;51.446;5.404;2023-04-03T09:51:34;1.67;;;1.10;;
13048;SDS011;6591;51.446;5.404;2023-04-03T09:54:48;2.23;;;0.90;;
13048;SDS011;6591;51.446;5.404;2023-04-03T09:56:53;2.03;;;0.90;;
13048;SDS011;6591;51.446;5.404;2023-04-03T09:59:24;2.60;;;0.90;;
13048;SDS011;6591;51.446;5.404;2023-04-03T10:01:59;3.63;;;1.23;;
13048;SDS011;6591;51.446;5.404;2023-04-03T10:04:59;1.50;;;1.00;;
13048;SDS011;6591;51.446;5.404;2023-04-03T10:07:36;2.10;;;1.07;;
13048;SDS011;6591;51.446;5.404;2023-04-03T10:10:16;1.23;;;1.10;;
13048;SDS011;6591;51.446;5.404;2023-04-03T10:13:03;1.10;;;0.80;;
13048;SDS011;6591;51.446;5.404;2023-04-03T10:15:44;0.90;;;0.90;;
13048;SDS011;6591;51.446;5.404;2023-04-03T10:21:07;2.90;;;1.40;;
13048;SDS011;6591;51.446;5.404;2023-04-03T10:24:07;1.63;;;1.00;;
13048;SDS011;6591;51.446;5.404;2023-04-03T10:36:32;1.40;;;1.10;;
13048;SDS011;6591;51.446;5.404;2023-04-03T10:42:13;0.90;;;0.80;;
13048;SDS011;6591;51.446;5.404;2023-04-03T10:50:55;1.40;;;0.87;;
13048;SDS011;6591;51.446;5.404;2023-04-03T11:02:27;1.87;;;1.00;;
13048;SDS011;6591;51.446;5.404;2023-04-03T11:05:01;2.77;;;0.90;;
13048;SDS011;6591;51.446;5.404;2023-04-03T11:10:59;0.93;;;0.87;;
13048;SDS011;6591;51.446;5.404;2023-04-03T11:13:33;1.23;;;0.73;;
13048;SDS011;6591;51.446;5.404;2023-04-03T11:16:09;1.07;;;0.80;;
13048;SDS011;6591;51.446;5.404;2023-04-03T11:18:52;1.50;;;0.80;;
13048;SDS011;6591;51.446;5.404;2023-04-03T11:21:53;1.23;;;0.83;;
13048;SDS011;6591;51.446;5.404;2023-04-03T11:24:36;2.07;;;1.00;;
13048;SDS011;6591;51.446;5.404;2023-04-03T11:27:11;1.03;;;0.93;;
13048;SDS011;6591;51.446;5.404;2023-04-03T11:29:49;1.27;;;1.10;;
13048;SDS011;6591;51.446;5.404;2023-04-03T11:35:18;1.23;;;1.00;;
13048;SDS011;6591;51.446;5.404;2023-04-03T11:37:48;1.03;;;0.77;;
13048;SDS011;6591;51.446;5.404;2023-04-03T11:40:21;1.77;;;1.10;;
13048;SDS011;6591;51.446;5.404;2023-04-03T11:51:39;2.47;;;0.90;;
13048;SDS011;6591;51.446;5.404;2023-04-03T11:53:54;2.90;;;1.00;;
13048;SDS011;6591;51.446;5.404;2023-04-03T11:57:38;1.60;;;1.00;;
13048;SDS011;6591;51.446;5.404;2023-04-03T12:05:56;1.47;;;1.10;;
13048;SDS011;6591;51.446;5.404;2023-04-03T12:16:30;0.73;;;0.70;;
13048;SDS011;6591;51.446;5.404;2023-04-03T12:19:29;1.43;;;1.00;;
13048;SDS011;6591;51.446;5.404;2023-04-03T12:22:06;0.80;;;0.80;;
13048;SDS011;6591;51.446;5.404;2023-04-03T12:24:39;1.27;;;0.90;;
13048;SDS011;6591;51.446;5.404;2023-04-03T12:27:20;1.47;;;1.03;;
13048;SDS011;6591;51.446;5.404;2023-04-03T12:35:43;0.80;;;0.80;;
13048;SDS011;6591;51.446;5.404;2023-04-03T12:44:06;1.40;;;1.10;;
13048;SDS011;6591;51.446;5.404;2023-04-03T12:46:50;1.70;;;1.00;;
13048;SDS011;6591;51.446;5.404;2023-04-03T12:49:24;2.00;;;1.10;;
13048;SDS011;6591;51.446;5.404;2023-04-03T12:55:15;1.83;;;0.83;;
13048;SDS011;6591;51.446;5.404;2023-04-03T12:57:47;1.43;;;0.90;;
13048;SDS011;6591;51.446;5.404;2023-04-03T13:00:22;1.47;;;1.00;;
13048;SDS011;6591;51.446;5.404;2023-04-03T13:03:02;1.27;;;1.00;;
13048;SDS011;6591;51.446;5.404;2023-04-03T13:05:32;1.27;;;0.90;;
13048;SDS011;6591;51.446;5.404;2023-04-03T13:08:04;1.30;;;0.90;;
13048;SDS011;6591;51.446;5.404;2023-04-03T13:10:50;1.57;;;1.00;;
13048;SDS011;6591;51.446;5.404;2023-04-03T13:13:35;2.50;;;1.00;;
13048;SDS011;6591;51.446;5.404;2023-04-03T13:16:09;1.77;;;1.20;;
13048;SDS011;6591;51.446;5.404;2023-04-03T13:18:39;2.33;;;1.20;;
13048;SDS011;6591;51.446;5.404;2023-04-03T13:21:08;2.13;;;1.20;;
13048;SDS011;6591;51.446;5.404;2023-04-03T13:23:46;1.93;;;1.37;;
13048;SDS011;6591;51.446;5.404;2023-04-03T13:26:30;3.17;;;1.20;;
13048;SDS011;6591;51.446;5.404;2023-04-03T13:29:00;1.90;;;1.23;;
13048;SDS011;6591;51.446;5.404;2023-04-03T13:31:56;1.30;;;1.00;;
13048;SDS011;6591;51.446;5.404;2023-04-03T13:34:34;2.53;;;1.00;;
13048;SDS011;6591;51.446;5.404;2023-04-03T13:37:07;1.57;;;1.13;;
13048;SDS011;6591;51.446;5.404;2023-04-03T13:40:09;1.27;;;1.17;;
13048;SDS011;6591;51.446;5.404;2023-04-03T13:42:40;2.03;;;1.07;;
13048;SDS011;6591;51.446;5.404;2023-04-03T13:45:24;3.17;;;1.27;;
13048;SDS011;6591;51.446;5.404;2023-04-03T13:48:15;1.47;;;1.27;;
13048;SDS011;6591;51.446;5.404;2023-04-03T13:53:25;2.50;;;1.10;;
13048;SDS011;6591;51.446;5.404;2023-04-03T13:55:56;2.10;;;1.20;;
13048;SDS011;6591;51.446;5.404;2023-04-03T13:58:30;1.67;;;1.10;;
13048;SDS011;6591;51.446;5.404;2023-04-03T14:04:11;1.30;;;1.10;;
13048;SDS011;6591;51.446;5.404;2023-04-03T14:06:48;1.37;;;1.00;;
13048;SDS011;6591;51.446;5.404;2023-04-03T14:09:18;1.97;;;1.10;;
13048;SDS011;6591;51.446;5.404;2023-04-03T14:11:47;1.37;;;1.00;;
13048;SDS011;6591;51.446;5.404;2023-04-03T14:14:20;2.50;;;1.20;;
13048;SDS011;6591;51.446;5.404;2023-04-03T14:16:56;2.40;;;1.30;;
13048;SDS011;6591;51.446;5.404;2023-04-03T14:19:30;1.83;;;1.10;;
13048;SDS011;6591;51.446;5.404;2023-04-03T14:22:05;2.10;;;1.33;;
13048;SDS011;6591;51.446;5.404;2023-04-03T14:24:43;2.27;;;1.50;;
13048;SDS011;6591;51.446;5.404;2023-04-03T14:27:20;2.07;;;1.20;;
13048;SDS011;6591;51.446;5.404;2023-04-03T14:29:59;1.30;;;1.07;;
13048;SDS011;6591;51.446;5.404;2023-04-03T14:32:26;1.70;;;1.10;;
13048;SDS011;6591;51.446;5.404;2023-04-03T14:34:54;3.70;;;1.57;;
13048;SDS011;6591;51.446;5.404;2023-04-03T14:37:24;3.07;;;1.53;;
13048;SDS011;6591;51.446;5.404;2023-04-03T14:39:56;2.80;;;1.50;;
13048;SDS011;6591;51.446;5.404;2023-04-03T14:42:30;1.93;;;1.23;;
13048;SDS011;6591;51.446;5.404;2023-04-03T14:45:02;2.27;;;1.30;;
13048;SDS011;6591;51.446;5.404;2023-04-03T14:47:33;1.73;;;1.30;;
13048;SDS011;6591;51.446;5.404;2023-04-03T14:50:07;3.03;;;1.40;;
13048;SDS011;6591;51.446;5.404;2023-04-03T14:52:42;2.70;;;1.30;;
13048;SDS011;6591;51.446;5.404;2023-04-03T14:55:11;3.63;;;1.30;;
13048;SDS011;6591;51.446;5.404;2023-04-03T14:57:42;1.52;;;1.15;;
13048;SDS011;6591;51.446;5.404;2023-04-03T15:00:16;2.03;;;1.45;;
13048;SDS011;6591;51.446;5.404;2023-04-03T15:02:47;3.15;;;1.73;;
13048;SDS011;6591;51.446;5.404;2023-04-03T15:05:15;1.90;;;1.30;;
13048;SDS011;6591;51.446;5.404;2023-04-03T15:07:44;2.45;;;1.30;;
13048;SDS011;6591;51.446;5.404;2023-04-03T15:10:24;4.37;;;1.57;;
13048;SDS011;6591;51.446;5.404;2023-04-03T15:12:54;1.50;;;1.30;;
13048;SDS011;6591;51.446;5.404;2023-04-03T15:15:23;3.20;;;1.55;;
13048;SDS011;6591;51.446;5.404;2023-04-03T15:17:55;2.67;;;1.60;;
13048;SDS011;6591;51.446;5.404;2023-04-03T15:20:27;2.63;;;1.60;;
13048;SDS011;6591;51.446;5.404;2023-04-03T15:22:57;1.83;;;1.38;;
13048;SDS011;6591;51.446;5.404;2023-04-03T15:25:26;2.58;;;1.42;;
13048;SDS011;6591;51.446;5.404;2023-04-03T15:27:54;2.88;;;1.88;;
13048;SDS011;6591;51.446;5.404;2023-04-03T15:30:22;2.83;;;1.30;;
13048;SDS011;6591;51.446;5.404;2023-04-03T15:32:50;2.10;;;1.40;;
13048;SDS011;6591;51.446;5.404;2023-04-03T15:35:17;2.30;;;1.42;;
13048;SDS011;6591;51.446;5.404;2023-04-03T15:37:45;2.97;;;1.38;;
13048;SDS011;6591;51.446;5.404;2023-04-03T15:40:12;2.10;;;1.38;;
13048;SDS011;6591;51.446;5.404;2023-04-03T15:42:40;3.45;;;1.60;;
13048;SDS011;6591;51.446;5.404;2023-04-03T15:45:07;1.27;;;1.10;;
13048;SDS011;6591;51.446;5.404;2023-04-03T15:47:35;3.65;;;1.58;;
13048;SDS011;6591;51.446;5.404;2023-04-03T15:50:03;2.30;;;1.08;;
13048;SDS011;6591;51.446;5.404;2023-04-03T15:52:33;3.38;;;1.38;;
13048;SDS011;6591;51.446;5.404;2023-04-03T15:55:01;3.05;;;1.42;;
13048;SDS011;6591;51.446;5.404;2023-04-03T15:57:30;3.95;;;1.85;;
13048;SDS011;6591;51.446;5.404;2023-04-03T16:00:03;3.38;;;1.50;;
13048;SDS011;6591;51.446;5.404;2023-04-03T16:02:32;2.72;;;1.50;;
13048;SDS011;6591;51.446;5.404;2023-04-03T16:05:00;2.97;;;1.50;;
13048;SDS011;6591;51.446;5.404;2023-04-03T16:07:30;1.65;;;1.20;;
13048;SDS011;6591;51.446;5.404;2023-04-03T16:09:57;2.08;;;1.30;;
13048;SDS011;6591;51.446;5.404;2023-04-03T16:12:24;2.15;;;1.20;;
13048;SDS011;6591;51.446;5.404;2023-04-03T16:14:51;1.65;;;1.40;;
13048;SDS011;6591;51.446;5.404;2023-04-03T16:17:18;2.05;;;1.30;;
13048;SDS011;6591;51.446;5.404;2023-04-03T16:19:45;2.45;;;1.40;;
13048;SDS011;6591;51.446;5.404;2023-04-03T16:22:12;2.50;;;1.52;;
13048;SDS011;6591;51.446;5.404;2023-04-03T16:24:39;1.95;;;1.45;;
13048;SDS011;6591;51.446;5.404;2023-04-03T16:27:06;1.75;;;1.15;;
13048;SDS011;6591;51.446;5.404;2023-04-03T16:29:33;2.20;;;1.42;;
13048;SDS011;6591;51.446;5.404;2023-04-03T16:32:00;3.17;;;1.30;;
13048;SDS011;6591;51.446;5.404;2023-04-03T16:34:29;2.00;;;1.50;;
13048;SDS011;6591;51.446;5.404;2023-04-03T16:36:59;2.13;;;1.35;;
13048;SDS011;6591;51.446;5.404;2023-04-03T16:39:26;2.53;;;1.25;;
13048;SDS011;6591;51.446;5.404;2023-04-03T16:41:53;2.67;;;1.33;;
13048;SDS011;6591;51.446;5.404;2023-04-03T16:44:20;2.40;;;1.67;;
13048;SDS011;6591;51.446;5.404;2023-04-03T16:46:47;3.00;;;1.65;;
13048;SDS011;6591;51.446;5.404;2023-04-03T16:49:15;2.15;;;1.50;;
13048;SDS011;6591;51.446;5.404;2023-04-03T16:51:42;3.42;;;1.30;;
13048;SDS011;6591;51.446;5.404;2023-04-03T16:54:10;1.75;;;1.17;;
13048;SDS011;6591;51.446;5.404;2023-04-03T16:56:39;3.50;;;1.50;;